createdAt,value
2019-03-22T00:00:35.877Z,9.53
2019-03-22T00:10:37.145Z,10.20
2019-03-22T00:30:47.618Z,15.63
2019-03-22T00:40:49.678Z,23.73
2019-03-22T00:50:50.959Z,22.73
2019-03-22T01:00:52.515Z,15.03
2019-03-22T01:10:53.534Z,11.63
2019-03-22T01:20:54.801Z,11.97
2019-03-22T01:30:56.055Z,11.50
2019-03-22T01:40:57.550Z,10.97
2019-03-22T01:50:58.925Z,10.07
2019-03-22T02:01:00.387Z,9.10
2019-03-22T02:11:01.769Z,9.47
2019-03-22T02:21:03.078Z,9.63
2019-03-22T02:31:04.434Z,8.57
2019-03-22T02:41:05.734Z,8.90
2019-03-22T02:51:07.033Z,9.00
2019-03-22T03:01:08.319Z,8.83
2019-03-22T03:11:09.599Z,9.63
2019-03-22T03:21:11.155Z,9.17
2019-03-22T03:31:12.451Z,8.93
2019-03-22T03:41:13.780Z,8.90
2019-03-22T03:51:15.058Z,9.77
2019-03-22T04:01:16.409Z,10.63
2019-03-22T04:11:17.722Z,10.10
2019-03-22T04:21:19.046Z,10.63
2019-03-22T04:31:20.330Z,11.33
2019-03-22T04:41:21.682Z,10.53
2019-03-22T04:51:23.047Z,10.23
2019-03-22T05:01:24.346Z,9.80
2019-03-22T05:11:25.785Z,10.03
2019-03-22T05:21:27.473Z,10.33
2019-03-22T05:31:29.629Z,9.83
2019-03-22T05:41:31.027Z,14.07
2019-03-22T05:51:32.325Z,9.50
2019-03-22T06:01:33.629Z,10.60
2019-03-22T06:11:34.906Z,8.77
2019-03-22T06:21:36.183Z,8.93
2019-03-22T06:31:37.477Z,8.70
2019-03-22T06:41:40.777Z,8.97
2019-03-22T06:51:42.046Z,9.17
2019-03-22T07:01:43.302Z,8.17
2019-03-22T07:11:44.571Z,7.40
2019-03-22T07:21:45.849Z,7.30
2019-03-22T07:31:47.139Z,7.70
2019-03-22T07:41:48.409Z,7.27
2019-03-22T07:51:49.726Z,7.60
2019-03-22T08:01:51.019Z,6.47
2019-03-22T08:11:52.307Z,6.50
2019-03-22T08:21:53.595Z,5.13
2019-03-22T08:31:54.896Z,6.30
2019-03-22T08:41:56.173Z,5.70
2019-03-22T08:51:57.477Z,6.03
2019-03-22T09:01:58.762Z,6.20
2019-03-22T09:12:00.059Z,7.68
2019-03-22T09:22:01.348Z,8.93
2019-03-22T09:32:02.662Z,11.63
2019-03-22T09:42:03.969Z,11.45
2019-03-22T09:52:05.291Z,11.23
2019-03-22T10:02:06.650Z,10.55
2019-03-22T10:12:07.901Z,8.90
2019-03-22T10:22:09.210Z,9.68
2019-03-22T10:32:11.255Z,10.65
2019-03-22T10:42:13.315Z,9.85
2019-03-22T10:52:14.593Z,11.35
2019-03-22T11:02:15.890Z,10.73
2019-03-22T11:12:17.189Z,9.80
2019-03-22T11:22:18.501Z,9.73
2019-03-22T11:32:19.911Z,10.37
2019-03-22T11:42:21.149Z,10.97
2019-03-22T11:52:23.234Z,10.30
2019-03-22T12:02:24.749Z,10.63
2019-03-22T12:12:26.026Z,9.60
2019-03-22T12:22:27.320Z,9.90
2019-03-22T12:32:32.156Z,9.33
2019-03-22T12:42:29.962Z,8.97
2019-03-22T12:52:31.438Z,9.33
2019-03-22T13:02:41.851Z,9.83
2019-03-22T13:12:34.245Z,9.30
2019-03-22T13:32:51.832Z,8.87
2019-03-22T13:42:43.464Z,9.47
2019-03-22T13:52:44.765Z,7.73
2019-03-22T14:02:48.086Z,8.43
2019-03-22T14:12:50.333Z,8.43
2019-03-22T14:32:59.785Z,8.30
2019-03-22T14:43:01.309Z,7.80
2019-03-22T14:53:02.650Z,7.40
2019-03-22T15:03:04.039Z,7.23
2019-03-22T15:13:05.437Z,6.73
2019-03-22T15:23:06.702Z,7.10
2019-03-22T15:33:13.088Z,7.37
2019-03-22T15:43:14.431Z,7.50
2019-03-22T15:53:19.330Z,7.93
2019-03-22T16:13:28.349Z,6.57
2019-03-22T16:23:29.763Z,5.33
2019-03-22T16:33:31.324Z,5.40
2019-03-22T16:43:37.165Z,4.97
